createdAt,value
2022-09-11T00:02:17.780Z,15.37
2022-09-11T00:04:47.470Z,15.23
2022-09-11T00:07:17.104Z,15.19
2022-09-11T00:09:49.331Z,15.26
2022-09-11T00:12:18.957Z,15.15
2022-09-11T00:14:48.607Z,15.28
2022-09-11T00:17:18.694Z,15.31
2022-09-11T00:19:48.431Z,15.37
2022-09-11T00:22:18.117Z,15.24
2022-09-11T00:24:50.478Z,15.21
2022-09-11T00:27:20.487Z,15.17
2022-09-11T00:29:50.108Z,15.35
2022-09-11T00:32:20.237Z,15.28
2022-09-11T00:34:50.028Z,15.18
2022-09-11T00:37:19.704Z,15.29
2022-09-11T00:39:52.955Z,15.41
2022-09-11T00:42:22.748Z,15.34
2022-09-11T00:45:04.925Z,15.46
2022-09-11T00:47:34.775Z,15.49
2022-09-11T00:50:13.394Z,15.26
2022-09-11T00:52:53.115Z,15.48
2022-09-11T00:55:27.787Z,15.36
2022-09-11T00:58:02.122Z,15.26
2022-09-11T01:00:32.093Z,15.29
2022-09-11T01:03:03.294Z,15.24
2022-09-11T01:05:35.416Z,15.13
2022-09-11T01:08:06.508Z,15.22
2022-09-11T01:10:45.119Z,15.28
2022-09-11T01:13:22.231Z,15.23
2022-09-11T01:16:04.418Z,15.14
2022-09-11T01:18:41.299Z,15.19
2022-09-11T01:21:41.042Z,15.27
2022-09-11T01:24:26.280Z,15.22
2022-09-11T01:27:27.333Z,15.22
2022-09-11T01:30:01.973Z,15.24
2022-09-11T01:32:43.145Z,15.19
2022-09-11T01:35:18.725Z,15.31
2022-09-11T01:37:56.500Z,15.25
2022-09-11T01:40:31.539Z,15.28
2022-09-11T01:43:09.691Z,15.28
2022-09-11T01:45:43.637Z,15.20
2022-09-11T01:48:18.716Z,15.22
2022-09-11T01:50:50.516Z,15.19
2022-09-11T01:53:23.194Z,15.15
2022-09-11T01:55:59.506Z,15.17
2022-09-11T01:58:36.488Z,15.08
2022-09-11T02:01:08.477Z,15.19
2022-09-11T02:03:42.584Z,15.07
2022-09-11T02:06:16.785Z,15.22
2022-09-11T02:08:50.237Z,15.12
2022-09-11T02:11:21.403Z,15.19
2022-09-11T02:14:01.555Z,15.16
2022-09-11T02:16:42.824Z,15.32
2022-09-11T02:19:15.760Z,15.20
2022-09-11T02:21:47.915Z,15.16
2022-09-11T02:24:18.306Z,15.12
2022-09-11T02:26:51.199Z,15.17
2022-09-11T02:29:24.561Z,15.20
2022-09-11T02:31:55.049Z,15.28
2022-09-11T02:34:29.954Z,15.19
2022-09-11T02:37:13.919Z,15.10
2022-09-11T02:40:03.257Z,15.12
2022-09-11T02:42:45.799Z,15.20
2022-09-11T02:45:35.821Z,15.30
2022-09-11T02:48:26.447Z,15.24
2022-09-11T02:51:02.796Z,15.17
2022-09-11T02:53:43.626Z,15.24
2022-09-11T02:56:19.838Z,15.23
2022-09-11T02:58:55.347Z,15.01
2022-09-11T03:01:28.050Z,15.02
2022-09-11T03:03:57.836Z,15.13
2022-09-11T03:06:29.513Z,15.08
2022-09-11T03:08:59.159Z,15.05
2022-09-11T03:11:29.115Z,15.11
2022-09-11T03:13:59.264Z,15.11
2022-09-11T03:16:31.591Z,15.05
2022-09-11T03:19:01.280Z,15.06
2022-09-11T03:21:31.068Z,15.07
2022-09-11T03:24:00.750Z,15.13
2022-09-11T03:26:32.060Z,15.21
2022-09-11T03:29:01.726Z,15.18
2022-09-11T03:31:38.548Z,15.18
2022-09-11T03:34:09.245Z,15.07
2022-09-11T03:36:38.998Z,15.10
2022-09-11T03:39:09.387Z,15.11
2022-09-11T03:41:39.058Z,15.20
2022-09-11T03:44:08.752Z,15.15
2022-09-11T03:46:41.042Z,15.05
2022-09-11T03:49:10.726Z,15.12
2022-09-11T03:51:40.402Z,15.18
2022-09-11T03:54:10.240Z,15.14
2022-09-11T03:56:39.939Z,15.14
2022-09-11T03:59:09.611Z,15.24
2022-09-11T04:01:41.898Z,15.17
2022-09-11T04:04:11.620Z,15.17
2022-09-11T04:06:41.312Z,15.16
2022-09-11T04:09:11.105Z,15.10
2022-09-11T04:11:41.443Z,15.12
2022-09-11T04:14:11.714Z,15.09
2022-09-11T04:16:44.086Z,15.17
2022-09-11T04:19:14.854Z,15.22
2022-09-11T04:21:44.523Z,15.12
2022-09-11T04:24:15.431Z,15.18
2022-09-11T04:26:45.360Z,15.10
2022-09-11T04:29:14.992Z,15.07
2022-09-11T04:31:47.673Z,15.04
2022-09-11T04:34:17.308Z,15.07
2022-09-11T04:36:46.976Z,14.99
2022-09-11T04:39:16.904Z,15.11
2022-09-11T04:41:46.666Z,15.18
2022-09-11T04:44:16.750Z,15.07
2022-09-11T04:46:48.960Z,15.13
2022-09-11T04:49:18.915Z,15.15
2022-09-11T04:51:48.995Z,15.14
2022-09-11T04:54:21.348Z,15.21
2022-09-11T04:56:51.696Z,15.09
2022-09-11T04:59:23.974Z,15.16
2022-09-11T05:01:56.411Z,15.18
2022-09-11T05:04:26.629Z,15.18
2022-09-11T05:06:56.380Z,15.10
2022-09-11T05:09:26.816Z,15.06
2022-09-11T05:11:57.106Z,15.10
2022-09-11T05:14:28.349Z,15.04
2022-09-11T05:17:01.596Z,15.09
2022-09-11T05:19:31.357Z,15.14
2022-09-11T05:22:00.952Z,15.05
2022-09-11T05:24:30.529Z,15.03
2022-09-11T05:27:01.375Z,15.03
2022-09-11T05:29:32.762Z,15.09
2022-09-11T05:32:06.133Z,15.16
2022-09-11T05:34:35.778Z,15.10
2022-09-11T05:37:05.608Z,15.08
2022-09-11T05:39:35.461Z,15.12
2022-09-11T05:42:05.200Z,15.08
2022-09-11T05:44:36.937Z,15.06
2022-09-11T05:47:09.376Z,15.03
2022-09-11T05:49:39.078Z,15.05
2022-09-11T05:52:09.965Z,15.06
2022-09-11T05:54:39.650Z,15.02
2022-09-11T05:57:09.264Z,15.07
2022-09-11T05:59:38.935Z,15.03
2022-09-11T06:02:13.413Z,15.06
2022-09-11T06:04:43.127Z,15.14
2022-09-11T06:07:12.792Z,15.08
2022-09-11T06:09:42.386Z,15.08
2022-09-11T06:12:12.545Z,15.19
2022-09-11T06:14:44.036Z,15.18
2022-09-11T06:17:16.231Z,15.07
2022-09-11T06:19:45.877Z,15.15
2022-09-11T06:22:15.642Z,15.13
2022-09-11T06:24:45.242Z,15.15
2022-09-11T06:27:15.083Z,15.16
2022-09-11T06:29:45.073Z,15.20
2022-09-11T06:32:18.200Z,15.24
2022-09-11T06:34:47.856Z,15.17
2022-09-11T06:37:17.592Z,15.13
2022-09-11T06:39:47.257Z,15.13
2022-09-11T06:42:16.894Z,15.12
2022-09-11T06:44:50.536Z,15.13
2022-09-11T06:47:23.441Z,15.18
2022-09-11T06:49:53.108Z,15.19
2022-09-11T06:52:22.760Z,15.16
2022-09-11T06:54:53.358Z,15.13
2022-09-11T06:57:22.970Z,15.18
2022-09-11T06:59:52.744Z,15.23
2022-09-11T07:02:25.638Z,15.25
2022-09-11T07:04:55.506Z,15.22
2022-09-11T07:07:25.135Z,15.29
2022-09-11T07:09:54.823Z,15.19
2022-09-11T07:12:24.464Z,15.21
2022-09-11T07:14:54.138Z,15.37
2022-09-11T07:17:26.473Z,15.32
2022-09-11T07:19:56.163Z,15.37
2022-09-11T07:22:26.213Z,15.49
2022-09-11T07:24:56.460Z,15.47
2022-09-11T07:27:26.546Z,15.57
2022-09-11T07:29:56.313Z,15.47
2022-09-11T07:32:29.246Z,15.55
2022-09-11T07:34:58.940Z,15.56
2022-09-11T07:37:28.583Z,15.69
2022-09-11T07:39:58.256Z,15.72
2022-09-11T07:42:29.034Z,15.80
2022-09-11T07:44:58.879Z,15.81
2022-09-11T07:47:31.222Z,15.86
2022-09-11T07:50:00.851Z,15.96
2022-09-11T07:52:30.566Z,15.95
2022-09-11T07:55:01.498Z,16.08
2022-09-11T07:57:32.987Z,16.18
2022-09-11T08:00:02.655Z,16.18
2022-09-11T08:02:34.945Z,16.31
2022-09-11T08:05:04.700Z,16.44
2022-09-11T08:07:34.356Z,16.49
2022-09-11T08:10:26.071Z,16.59
2022-09-11T08:12:56.881Z,16.56
2022-09-11T08:15:29.158Z,16.58
2022-09-11T08:18:01.492Z,16.46
2022-09-11T08:20:31.289Z,16.54
2022-09-11T08:23:01.032Z,16.54
2022-09-11T08:25:31.409Z,16.49
2022-09-11T08:28:01.711Z,16.55
2022-09-11T08:30:31.592Z,16.61
2022-09-11T08:33:03.996Z,16.74
2022-09-11T08:35:33.723Z,16.78
2022-09-11T08:38:03.356Z,17.01
2022-09-11T08:40:34.268Z,17.26
2022-09-11T08:43:05.484Z,17.35
2022-09-11T08:45:38.121Z,17.42
2022-09-11T08:48:12.363Z,17.38
2022-09-11T08:50:45.014Z,17.28
2022-09-11T08:53:18.866Z,17.21
2022-09-11T08:55:52.491Z,17.26
2022-09-11T08:58:32.101Z,17.31
2022-09-11T09:01:10.883Z,17.42
2022-09-11T09:04:01.933Z,17.43
2022-09-11T09:06:50.136Z,17.55
2022-09-11T09:09:32.981Z,17.64
2022-09-11T09:12:16.122Z,17.73
2022-09-11T09:15:05.560Z,17.97
2022-09-11T09:17:41.709Z,18.11
2022-09-11T09:20:21.198Z,17.91
2022-09-11T09:22:56.201Z,17.74
2022-09-11T09:25:28.097Z,17.57
2022-09-11T09:28:02.040Z,17.52
2022-09-11T09:30:37.402Z,17.47
2022-09-11T09:33:27.420Z,17.40
2022-09-11T09:36:00.889Z,17.36
2022-09-11T09:38:33.633Z,17.35
2022-09-11T09:41:36.947Z,17.35
2022-09-11T09:44:19.616Z,17.49
2022-09-11T09:46:51.734Z,17.74
2022-09-11T09:49:26.396Z,17.68
2022-09-11T09:52:04.171Z,17.65
2022-09-11T09:54:37.142Z,17.66
2022-09-11T09:57:10.460Z,17.60
2022-09-11T09:59:44.666Z,17.70
2022-09-11T10:02:14.795Z,17.78
2022-09-11T10:04:44.505Z,17.80
2022-09-11T10:07:24.547Z,17.89
2022-09-11T10:10:03.794Z,17.97
2022-09-11T10:12:33.771Z,18.09
2022-09-11T10:15:06.693Z,18.22
2022-09-11T10:17:40.563Z,18.30
2022-09-11T10:20:26.877Z,18.23
2022-09-11T10:22:59.212Z,18.57
2022-09-11T10:25:30.271Z,19.30
2022-09-11T10:28:06.692Z,20.05
2022-09-11T10:30:39.321Z,20.12
2022-09-11T10:33:19.387Z,20.03
2022-09-11T10:35:54.527Z,19.85
2022-09-11T10:38:32.354Z,19.65
2022-09-11T10:41:11.036Z,19.30
2022-09-11T10:43:49.376Z,18.97
2022-09-11T10:46:39.693Z,18.77
2022-09-11T10:49:21.884Z,18.55
2022-09-11T10:52:03.679Z,18.22
2022-09-11T10:54:56.271Z,18.04
2022-09-11T10:57:30.573Z,17.87
2022-09-11T11:00:09.095Z,17.87
2022-09-11T11:02:41.763Z,17.86
2022-09-11T11:05:20.941Z,17.90
2022-09-11T11:08:26.354Z,18.20
2022-09-11T11:11:16.139Z,19.29
2022-09-11T11:14:09.130Z,20.05
2022-09-11T11:16:49.967Z,20.56
2022-09-11T11:19:36.100Z,20.91
2022-09-11T11:22:17.204Z,21.42
2022-09-11T11:25:00.613Z,21.82
2022-09-11T11:27:54.347Z,21.92
2022-09-11T11:30:26.919Z,22.05
2022-09-11T11:33:26.399Z,22.20
2022-09-11T11:36:05.424Z,21.48
2022-09-11T11:38:43.701Z,20.93
2022-09-11T11:41:19.261Z,20.37
2022-09-11T11:43:55.636Z,20.16
2022-09-11T11:46:31.450Z,20.49
2022-09-11T11:49:04.809Z,20.88
2022-09-11T11:51:41.842Z,21.35
2022-09-11T11:54:20.476Z,21.57
2022-09-11T11:56:53.575Z,22.03
2022-09-11T11:59:32.845Z,22.33
2022-09-11T12:02:05.961Z,22.27
2022-09-11T12:04:43.814Z,22.35
2022-09-11T12:07:19.584Z,22.73
2022-09-11T12:09:51.555Z,22.38
2022-09-11T12:12:22.350Z,22.69
2022-09-11T12:14:58.171Z,22.66
2022-09-11T12:17:31.251Z,22.77
2022-09-11T12:20:17.462Z,22.70
2022-09-11T12:22:48.804Z,22.51
2022-09-11T12:26:06.928Z,22.53
2022-09-11T12:28:38.104Z,22.29
2022-09-11T12:31:12.273Z,22.07
2022-09-11T12:33:54.693Z,21.95
2022-09-11T12:36:36.282Z,22.40
2022-09-11T12:39:17.779Z,22.55
2022-09-11T12:41:48.089Z,22.63
2022-09-11T12:44:35.385Z,22.90
2022-09-11T12:47:20.509Z,22.15
2022-09-11T12:49:58.823Z,21.99
2022-09-11T12:52:36.460Z,21.80
2022-09-11T12:55:23.363Z,21.14
2022-09-11T12:57:53.598Z,21.31
2022-09-11T13:00:26.625Z,20.89
2022-09-11T13:03:01.290Z,20.75
2022-09-11T13:05:36.576Z,20.57
2022-09-11T13:08:10.483Z,20.32
2022-09-11T13:10:42.079Z,20.22
2022-09-11T13:13:44.795Z,20.17
2022-09-11T13:16:22.098Z,20.09
2022-09-11T13:18:55.073Z,19.94
2022-09-11T13:21:26.578Z,19.96
2022-09-11T13:23:56.877Z,20.02
2022-09-11T13:26:31.455Z,19.88
2022-09-11T13:29:02.825Z,19.81
2022-09-11T13:31:36.611Z,19.91
2022-09-11T13:34:18.042Z,19.78
2022-09-11T13:36:52.385Z,19.76
2022-09-11T13:39:28.018Z,19.81
2022-09-11T13:42:03.391Z,19.80
2022-09-11T13:44:42.620Z,19.82
2022-09-11T13:47:21.911Z,19.89
2022-09-11T13:49:56.943Z,19.89
2022-09-11T13:52:29.520Z,19.99
2022-09-11T13:55:03.512Z,20.05
2022-09-11T13:57:34.854Z,19.99
2022-09-11T14:00:05.138Z,20.08
2022-09-11T14:02:52.705Z,20.13
2022-09-11T14:05:27.906Z,20.07
2022-09-11T14:08:04.828Z,20.13
2022-09-11T14:10:47.228Z,20.01
2022-09-11T14:13:23.481Z,20.13
2022-09-11T14:15:56.985Z,20.22
2022-09-11T14:18:31.852Z,20.15
2022-09-11T14:21:08.100Z,20.23
2022-09-11T14:23:45.779Z,20.12
2022-09-11T14:26:17.914Z,20.21
2022-09-11T14:29:01.040Z,20.38
2022-09-11T14:31:36.973Z,20.52
2022-09-11T14:34:15.684Z,20.56
2022-09-11T14:36:52.878Z,20.65
2022-09-11T14:39:29.067Z,20.59
2022-09-11T14:41:59.636Z,20.46
2022-09-11T14:44:32.274Z,20.49
2022-09-11T14:47:01.994Z,20.67
2022-09-11T14:49:32.222Z,20.63
2022-09-11T14:52:04.879Z,20.69
2022-09-11T14:54:34.507Z,20.76
2022-09-11T14:57:04.290Z,20.82
2022-09-11T14:59:33.914Z,20.91
2022-09-11T15:02:04.133Z,21.01
2022-09-11T15:04:34.026Z,20.84
2022-09-11T15:07:06.962Z,20.82
2022-09-11T15:09:37.752Z,20.64
2022-09-11T15:12:08.221Z,20.65
2022-09-11T15:14:55.685Z,20.71
2022-09-11T15:17:28.717Z,20.70
2022-09-11T15:19:59.637Z,20.76
2022-09-11T15:22:31.937Z,20.78
2022-09-11T15:25:02.051Z,20.85
2022-09-11T15:27:31.822Z,20.78
2022-09-11T15:30:01.495Z,20.80
2022-09-11T15:32:31.600Z,20.78
2022-09-11T15:35:01.933Z,20.78
2022-09-11T15:37:34.202Z,20.69
2022-09-11T15:40:04.238Z,20.69
2022-09-11T15:42:39.703Z,20.67
2022-09-11T15:45:13.129Z,20.78
2022-09-11T15:47:43.016Z,20.75
2022-09-11T15:50:18.253Z,20.67
2022-09-11T15:52:50.534Z,20.70
2022-09-11T15:55:20.399Z,20.69
2022-09-11T15:57:50.220Z,20.55
2022-09-11T16:00:20.053Z,20.51
2022-09-11T16:02:49.703Z,20.32
2022-09-11T16:05:19.458Z,20.16
2022-09-11T16:07:51.705Z,20.00
2022-09-11T16:10:21.567Z,19.95
2022-09-11T16:12:54.454Z,19.93
2022-09-11T16:15:26.520Z,19.95
2022-09-11T16:17:56.581Z,19.92
2022-09-11T16:20:26.245Z,19.96
2022-09-11T16:22:58.424Z,19.82
2022-09-11T16:25:28.195Z,19.84
2022-09-11T16:28:00.765Z,19.90
2022-09-11T16:30:43.139Z,19.84
2022-09-11T16:33:14.288Z,19.87
2022-09-11T16:35:44.934Z,19.84
2022-09-11T16:38:17.688Z,19.86
2022-09-11T16:40:47.389Z,19.80
2022-09-11T16:43:21.249Z,19.80
2022-09-11T16:45:54.712Z,19.69
2022-09-11T16:48:25.540Z,19.69
2022-09-11T16:50:56.163Z,19.61
2022-09-11T16:53:32.051Z,19.63
2022-09-11T16:56:02.342Z,19.68
2022-09-11T16:58:32.622Z,19.56
2022-09-11T17:01:02.343Z,19.54
2022-09-11T17:03:32.026Z,19.54
2022-09-11T17:06:01.835Z,19.44
2022-09-11T17:08:34.306Z,19.36
2022-09-11T17:11:05.888Z,19.36
2022-09-11T17:13:35.624Z,19.23
2022-09-11T17:16:06.906Z,19.21
2022-09-11T17:18:37.160Z,19.21
2022-09-11T17:21:09.272Z,19.19
2022-09-11T17:23:42.094Z,19.03
2022-09-11T17:26:14.122Z,18.97
2022-09-11T17:28:44.957Z,18.87
2022-09-11T17:31:16.081Z,18.82
2022-09-11T17:33:46.229Z,18.73
2022-09-11T17:36:19.493Z,18.63
2022-09-11T17:38:53.275Z,18.56
2022-09-11T17:41:23.804Z,18.44
2022-09-11T17:43:53.440Z,18.43
2022-09-11T17:46:25.143Z,18.34
2022-09-11T17:48:54.864Z,18.35
2022-09-11T17:51:27.957Z,18.32
2022-09-11T17:54:01.474Z,18.38
2022-09-11T17:56:33.599Z,18.38
2022-09-11T17:59:03.751Z,18.29
2022-09-11T18:01:33.334Z,18.19
2022-09-11T18:04:03.230Z,18.17
2022-09-11T18:06:36.427Z,18.07
2022-09-11T18:09:12.238Z,17.97
2022-09-11T18:11:42.782Z,17.94
2022-09-11T18:14:13.925Z,17.98
2022-09-11T18:16:45.302Z,17.82
2022-09-11T18:19:16.398Z,17.66
2022-09-11T18:21:49.930Z,17.61
2022-09-11T18:24:22.853Z,17.53
2022-09-11T18:26:58.547Z,17.49
2022-09-11T18:29:30.737Z,17.52
2022-09-11T18:32:00.718Z,17.51
2022-09-11T18:34:31.260Z,17.43
2022-09-11T18:37:01.213Z,17.44
2022-09-11T18:39:34.011Z,17.34
2022-09-11T18:42:07.182Z,17.30
2022-09-11T18:44:37.042Z,17.35
2022-09-11T18:47:06.880Z,17.31
2022-09-11T18:49:36.551Z,17.24
2022-09-11T18:52:07.344Z,17.24
2022-09-11T18:54:39.598Z,17.19
2022-09-11T18:57:09.360Z,17.19
2022-09-11T18:59:39.563Z,17.12
2022-09-11T19:02:09.607Z,17.11
2022-09-11T19:04:39.444Z,17.09
2022-09-11T19:07:10.218Z,17.04
2022-09-11T19:09:45.793Z,16.98
2022-09-11T19:12:16.001Z,16.97
2022-09-11T19:14:45.656Z,16.78
2022-09-11T19:17:15.291Z,16.83
2022-09-11T19:19:45.025Z,16.90
2022-09-11T19:22:15.000Z,16.90
2022-09-11T19:24:47.301Z,17.16
2022-09-11T19:27:17.061Z,17.10
2022-09-11T19:29:46.932Z,16.95
2022-09-11T19:32:17.769Z,16.86
2022-09-11T19:34:47.567Z,16.79
2022-09-11T19:37:17.380Z,16.74
2022-09-11T19:39:50.896Z,16.78
2022-09-11T19:42:21.185Z,16.75
2022-09-11T19:44:54.373Z,16.75
2022-09-11T19:47:26.573Z,16.65
2022-09-11T19:49:56.273Z,16.28
2022-09-11T19:52:29.717Z,16.16
2022-09-11T19:55:04.604Z,16.19
2022-09-11T19:57:34.260Z,16.13
2022-09-11T20:00:04.127Z,16.09
2022-09-11T20:02:33.811Z,16.38
2022-09-11T20:05:03.974Z,16.49
2022-09-11T20:07:33.864Z,16.34
2022-09-11T20:10:07.206Z,16.17
2022-09-11T20:12:37.340Z,16.09
2022-09-11T20:15:07.236Z,15.90
2022-09-11T20:17:36.942Z,15.84
2022-09-11T20:20:07.110Z,16.08
2022-09-11T20:22:36.850Z,16.17
2022-09-11T20:25:09.876Z,16.26
2022-09-11T20:27:39.606Z,16.06
2022-09-11T20:30:10.423Z,16.13
2022-09-11T20:32:40.748Z,16.19
2022-09-11T20:35:11.226Z,16.12
2022-09-11T20:37:40.892Z,15.82
2022-09-11T20:40:14.989Z,15.64
2022-09-11T20:42:44.669Z,15.65
2022-09-11T20:45:14.566Z,15.77
2022-09-11T20:47:44.114Z,15.88
2022-09-11T20:50:13.926Z,15.75
2022-09-11T20:52:46.695Z,15.52
2022-09-11T20:55:18.900Z,15.49
2022-09-11T20:57:48.466Z,15.56
2022-09-11T21:00:18.627Z,15.69
2022-09-11T21:02:48.255Z,15.77
2022-09-11T21:05:17.961Z,15.70
2022-09-11T21:07:47.522Z,15.64
2022-09-11T21:10:19.737Z,15.66
2022-09-11T21:12:49.285Z,15.60
2022-09-11T21:15:19.094Z,15.45
2022-09-11T21:17:51.613Z,15.57
2022-09-11T21:20:21.174Z,15.39
2022-09-11T21:22:50.789Z,15.42
2022-09-11T21:25:23.021Z,15.59
2022-09-11T21:27:52.694Z,15.59
2022-09-11T21:30:22.480Z,15.64
2022-09-11T21:32:52.176Z,15.56
2022-09-11T21:35:21.797Z,15.44
2022-09-11T21:37:51.457Z,15.42
2022-09-11T21:40:24.562Z,15.56
2022-09-11T21:42:54.197Z,15.47
2022-09-11T21:45:23.827Z,15.40
2022-09-11T21:47:53.492Z,15.06
2022-09-11T21:50:23.265Z,15.05
2022-09-11T21:52:52.952Z,14.98
2022-09-11T21:55:26.213Z,14.89
2022-09-11T21:57:55.857Z,15.12
2022-09-11T22:00:25.583Z,14.96
2022-09-11T22:02:55.210Z,15.15
2022-09-11T22:05:24.945Z,15.08
2022-09-11T22:07:54.557Z,15.10
2022-09-11T22:10:27.271Z,15.13
2022-09-11T22:12:56.941Z,15.08
2022-09-11T22:15:26.722Z,14.99
2022-09-11T22:17:56.593Z,15.06
2022-09-11T22:20:26.416Z,15.00
2022-09-11T22:22:58.873Z,15.31
2022-09-11T22:25:31.258Z,15.28
2022-09-11T22:28:00.905Z,15.13
2022-09-11T22:30:30.778Z,15.20
2022-09-11T22:33:00.655Z,15.10
2022-09-11T22:35:31.112Z,15.22
2022-09-11T22:38:00.751Z,15.17
2022-09-11T22:40:33.055Z,14.95
2022-09-11T22:43:02.996Z,14.74
2022-09-11T22:45:32.846Z,14.86
2022-09-11T22:48:02.945Z,14.92
2022-09-11T22:50:32.681Z,14.65
2022-09-11T22:53:02.393Z,14.54
2022-09-11T22:55:34.596Z,14.70
2022-09-11T22:58:04.463Z,14.63
2022-09-11T23:00:34.098Z,14.54
2022-09-11T23:03:03.781Z,14.64
2022-09-11T23:05:45.871Z,14.46
2022-09-11T23:08:15.505Z,14.46
2022-09-11T23:10:49.409Z,14.35
2022-09-11T23:13:19.025Z,14.32
2022-09-11T23:15:48.672Z,14.57
2022-09-11T23:18:18.948Z,14.67
2022-09-11T23:20:48.699Z,14.52
2022-09-11T23:23:18.311Z,14.63
2022-09-11T23:25:51.068Z,14.52
2022-09-11T23:28:21.341Z,14.50
2022-09-11T23:30:51.022Z,14.57
2022-09-11T23:33:20.654Z,14.29
2022-09-11T23:35:50.370Z,14.35
2022-09-11T23:38:20.006Z,14.57
2022-09-11T23:40:53.073Z,14.61
2022-09-11T23:43:22.707Z,14.51
2022-09-11T23:45:52.389Z,14.30
2022-09-11T23:48:22.101Z,14.47
2022-09-11T23:50:51.760Z,14.52
2022-09-11T23:53:21.769Z,14.58
2022-09-11T23:55:54.121Z,14.58
2022-09-11T23:58:23.792Z,14.54
